sensor_id;sensor_type;location;lat;lon;timestamp;pressure;altitude;pressure_sealevel;temperature;humidity
65173;BME280;69059;52.218;5.172;2023-06-04T00:01:38;102128.06;;;14.29;100.00
65173;BME280;69059;52.218;5.172;2023-06-04T00:04:07;102130.69;;;14.29;100.00
65173;BME280;69059;52.218;5.172;2023-06-04T00:06:34;102126.63;;;14.18;100.00
65173;BME280;69059;52.218;5.172;2023-06-04T00:09:03;102124.78;;;14.19;100.00
65173;BME280;69059;52.218;5.172;2023-06-04T00:11:31;102100.91;;;13.97;100.00
65173;BME280;69059;52.218;5.172;2023-06-04T00:14:00;102126.63;;;14.10;100.00
65173;BME280;69059;52.218;5.172;2023-06-04T00:16:28;102127.16;;;14.06;100.00
65173;BME280;69059;52.218;5.172;2023-06-04T00:18:58;102132.75;;;14.03;100.00
65173;BME280;69059;52.218;5.172;2023-06-04T00:21:25;102128.63;;;14.00;100.00
65173;BME280;69059;52.218;5.172;2023-06-04T00:23:53;102124.06;;;13.94;100.00
65173;BME280;69059;52.218;5.172;2023-06-04T00:26:21;102118.19;;;13.92;100.00
65173;BME280;69059;52.218;5.172;2023-06-04T00:28:49;102120.63;;;13.85;100.00
65173;BME280;69059;52.218;5.172;2023-06-04T00:31:17;102114.75;;;13.83;100.00
65173;BME280;69059;52.218;5.172;2023-06-04T00:33:45;102112.63;;;13.79;100.00
65173;BME280;69059;52.218;5.172;2023-06-04T00:36:14;102119.84;;;13.77;100.00
65173;BME280;69059;52.218;5.172;2023-06-04T00:38:42;102115.75;;;13.74;100.00
65173;BME280;69059;52.218;5.172;2023-06-04T00:41:10;102123.28;;;13.69;100.00
65173;BME280;69059;52.218;5.172;2023-06-04T00:43:38;102121.19;;;13.65;100.00
65173;BME280;69059;52.218;5.172;2023-06-04T00:46:06;102118.03;;;13.69;100.00
65173;BME280;69059;52.218;5.172;2023-06-04T00:48:34;102119.22;;;13.58;100.00
65173;BME280;69059;52.218;5.172;2023-06-04T00:51:03;102116.09;;;13.63;100.00
65173;BME280;69059;52.218;5.172;2023-06-04T00:53:33;102067.97;;;13.23;100.00
65173;BME280;69059;52.218;5.172;2023-06-04T00:56:01;102122.34;;;13.54;100.00
65173;BME280;69059;52.218;5.172;2023-06-04T00:58:33;102127.94;;;13.51;100.00
65173;BME280;69059;52.218;5.172;2023-06-04T01:01:08;102114.47;;;13.46;100.00
65173;BME280;69059;52.218;5.172;2023-06-04T01:03:42;102106.94;;;13.35;100.00
65173;BME280;69059;52.218;5.172;2023-06-04T01:06:13;102120.06;;;13.43;100.00
65173;BME280;69059;52.218;5.172;2023-06-04T01:08:50;102118.94;;;13.37;100.00
65173;BME280;69059;52.218;5.172;2023-06-04T01:11:31;102110.41;;;13.27;100.00
65173;BME280;69059;52.218;5.172;2023-06-04T01:13:58;102123.69;;;13.25;100.00
65173;BME280;69059;52.218;5.172;2023-06-04T01:16:28;102116.94;;;13.31;100.00
65173;BME280;69059;52.218;5.172;2023-06-04T01:18:58;102116.63;;;13.34;100.00
65173;BME280;69059;52.218;5.172;2023-06-04T01:21:30;102120.41;;;13.23;100.00
65173;BME280;69059;52.218;5.172;2023-06-04T01:24:05;102117.94;;;13.22;100.00
65173;BME280;69059;52.218;5.172;2023-06-04T01:26:33;102118.59;;;13.24;100.00
65173;BME280;69059;52.218;5.172;2023-06-04T01:29:02;102115.63;;;13.19;100.00
65173;BME280;69059;52.218;5.172;2023-06-04T01:31:30;102120.06;;;13.18;100.00
65173;BME280;69059;52.218;5.172;2023-06-04T01:34:00;102098.41;;;13.00;100.00
65173;BME280;69059;52.218;5.172;2023-06-04T01:36:28;102115.47;;;13.04;100.00
65173;BME280;69059;52.218;5.172;2023-06-04T01:38:56;102129.72;;;13.10;100.00
65173;BME280;69059;52.218;5.172;2023-06-04T01:41:27;102126.44;;;13.08;100.00
65173;BME280;69059;52.218;5.172;2023-06-04T01:43:55;102126.94;;;13.03;100.00
65173;BME280;69059;52.218;5.172;2023-06-04T01:46:23;102128.72;;;13.03;100.00
65173;BME280;69059;52.218;5.172;2023-06-04T01:48:51;102124.31;;;13.03;100.00
65173;BME280;69059;52.218;5.172;2023-06-04T01:51:19;102122.66;;;13.02;100.00
65173;BME280;69059;52.218;5.172;2023-06-04T01:53:47;102123.47;;;12.86;100.00
65173;BME280;69059;52.218;5.172;2023-06-04T01:56:15;102123.97;;;12.90;100.00
65173;BME280;69059;52.218;5.172;2023-06-04T01:58:44;102119.03;;;12.87;100.00
65173;BME280;69059;52.218;5.172;2023-06-04T02:01:12;102117.09;;;12.89;100.00
65173;BME280;69059;52.218;5.172;2023-06-04T02:03:44;102122.31;;;12.89;100.00
65173;BME280;69059;52.218;5.172;2023-06-04T02:06:11;102120.69;;;12.88;100.00
65173;BME280;69059;52.218;5.172;2023-06-04T02:08:39;102124.44;;;12.85;100.00
65173;BME280;69059;52.218;5.172;2023-06-04T02:11:08;102119.34;;;12.84;100.00
65173;BME280;69059;52.218;5.172;2023-06-04T02:13:36;102124.44;;;12.85;100.00
65173;BME280;69059;52.218;5.172;2023-06-04T02:16:06;102135.09;;;12.84;100.00
65173;BME280;69059;52.218;5.172;2023-06-04T02:18:34;102125.25;;;12.78;100.00
65173;BME280;69059;52.218;5.172;2023-06-04T02:21:01;102096.88;;;12.57;100.00
65173;BME280;69059;52.218;5.172;2023-06-04T02:23:29;102093.72;;;12.45;100.00
65173;BME280;69059;52.218;5.172;2023-06-04T02:25:57;102125.88;;;12.72;100.00
65173;BME280;69059;52.218;5.172;2023-06-04T02:28:25;102115.72;;;12.61;100.00
65173;BME280;69059;52.218;5.172;2023-06-04T02:30:53;102112.28;;;12.60;100.00
65173;BME280;69059;52.218;5.172;2023-06-04T02:33:23;102126.84;;;12.63;100.00
65173;BME280;69059;52.218;5.172;2023-06-04T02:35:51;102136.81;;;12.59;100.00
65173;BME280;69059;52.218;5.172;2023-06-04T02:38:19;102123.88;;;12.57;100.00
65173;BME280;69059;52.218;5.172;2023-06-04T02:40:47;102127.00;;;12.61;100.00
65173;BME280;69059;52.218;5.172;2023-06-04T02:43:14;102132.25;;;12.53;100.00
65173;BME280;69059;52.218;5.172;2023-06-04T02:45:42;102127.81;;;12.53;100.00
65173;BME280;69059;52.218;5.172;2023-06-04T02:48:10;102125.34;;;12.52;100.00
65173;BME280;69059;52.218;5.172;2023-06-04T02:50:39;102125.84;;;12.55;100.00
65173;BME280;69059;52.218;5.172;2023-06-04T02:53:08;102120.28;;;12.50;100.00
65173;BME280;69059;52.218;5.172;2023-06-04T02:55:36;102126.81;;;12.46;100.00
65173;BME280;69059;52.218;5.172;2023-06-04T02:58:04;102121.72;;;12.45;100.00
65173;BME280;69059;52.218;5.172;2023-06-04T03:00:32;102124.50;;;12.43;100.00
65173;BME280;69059;52.218;5.172;2023-06-04T03:03:00;102126.94;;;12.37;100.00
65173;BME280;69059;52.218;5.172;2023-06-04T03:05:29;102098.22;;;12.19;100.00
65173;BME280;69059;52.218;5.172;2023-06-04T03:08:01;102129.72;;;12.35;100.00
65173;BME280;69059;52.218;5.172;2023-06-04T03:10:29;102131.34;;;12.28;100.00
65173;BME280;69059;52.218;5.172;2023-06-04T03:12:57;102119.38;;;12.26;100.00
65173;BME280;69059;52.218;5.172;2023-06-04T03:15:25;102112.66;;;12.23;100.00
65173;BME280;69059;52.218;5.172;2023-06-04T03:17:53;102120.81;;;12.20;100.00
65173;BME280;69059;52.218;5.172;2023-06-04T03:20:21;102120.28;;;12.16;100.00
65173;BME280;69059;52.218;5.172;2023-06-04T03:22:51;102114.25;;;12.16;100.00
65173;BME280;69059;52.218;5.172;2023-06-04T03:25:20;102110.31;;;12.12;100.00
65173;BME280;69059;52.218;5.172;2023-06-04T03:27:48;102115.84;;;12.09;100.00
65173;BME280;69059;52.218;5.172;2023-06-04T03:30:16;102115.19;;;12.07;100.00
65173;BME280;69059;52.218;5.172;2023-06-04T03:32:44;102110.09;;;12.05;100.00
65173;BME280;69059;52.218;5.172;2023-06-04T03:35:12;102116.53;;;12.11;100.00
65173;BME280;69059;52.218;5.172;2023-06-04T03:37:39;102111.22;;;11.95;100.00
65173;BME280;69059;52.218;5.172;2023-06-04T03:40:08;102107.31;;;11.99;100.00
65173;BME280;69059;52.218;5.172;2023-06-04T03:42:37;102103.72;;;12.00;100.00
65173;BME280;69059;52.218;5.172;2023-06-04T03:45:06;102081.50;;;11.78;100.00
65173;BME280;69059;52.218;5.172;2023-06-04T03:47:34;102108.06;;;11.91;100.00
65173;BME280;69059;52.218;5.172;2023-06-04T03:50:02;102084.56;;;11.73;100.00
65173;BME280;69059;52.218;5.172;2023-06-04T03:52:30;102108.75;;;11.93;100.00
65173;BME280;69059;52.218;5.172;2023-06-04T03:54:57;102099.72;;;11.88;100.00
65173;BME280;69059;52.218;5.172;2023-06-04T03:57:25;102104.00;;;11.89;100.00
65173;BME280;69059;52.218;5.172;2023-06-04T03:59:54;102063.25;;;11.60;100.00
65173;BME280;69059;52.218;5.172;2023-06-04T04:02:23;102104.97;;;11.88;100.00
65173;BME280;69059;52.218;5.172;2023-06-04T04:04:51;102112.47;;;11.91;100.00
65173;BME280;69059;52.218;5.172;2023-06-04T04:07:20;102103.31;;;11.87;100.00
65173;BME280;69059;52.218;5.172;2023-06-04T04:09:49;102108.56;;;11.87;100.00
65173;BME280;69059;52.218;5.172;2023-06-04T04:12:16;102096.97;;;11.89;100.00
65173;BME280;69059;52.218;5.172;2023-06-04T04:14:45;102094.34;;;11.89;100.00
65173;BME280;69059;52.218;5.172;2023-06-04T04:17:15;102034.44;;;11.52;100.00
65173;BME280;69059;52.218;5.172;2023-06-04T04:19:42;102100.56;;;11.88;100.00
65173;BME280;69059;52.218;5.172;2023-06-04T04:22:11;102097.78;;;11.90;100.00
65173;BME280;69059;52.218;5.172;2023-06-04T04:24:39;102096.97;;;11.89;100.00
65173;BME280;69059;52.218;5.172;2023-06-04T04:27:07;102085.81;;;11.87;100.00
65173;BME280;69059;52.218;5.172;2023-06-04T04:29:38;102096.78;;;11.91;100.00
65173;BME280;69059;52.218;5.172;2023-06-04T04:32:09;102093.38;;;11.90;100.00
65173;BME280;69059;52.218;5.172;2023-06-04T04:34:50;102071.22;;;11.76;100.00
65173;BME280;69059;52.218;5.172;2023-06-04T04:37:18;102068.28;;;11.79;100.00
65173;BME280;69059;52.218;5.172;2023-06-04T04:39:47;102079.13;;;11.93;100.00
65173;BME280;69059;52.218;5.172;2023-06-04T04:42:18;102085.25;;;12.01;100.00
65173;BME280;69059;52.218;5.172;2023-06-04T04:44:46;102093.09;;;12.01;100.00
65173;BME280;69059;52.218;5.172;2023-06-04T04:47:16;102092.13;;;12.02;100.00
65173;BME280;69059;52.218;5.172;2023-06-04T04:49:45;102085.09;;;12.03;100.00
65173;BME280;69059;52.218;5.172;2023-06-04T04:52:16;102084.91;;;12.04;100.00
65173;BME280;69059;52.218;5.172;2023-06-04T04:54:44;102085.56;;;12.06;100.00
65173;BME280;69059;52.218;5.172;2023-06-04T04:57:11;102091.16;;;12.11;100.00
65173;BME280;69059;52.218;5.172;2023-06-04T04:59:40;102075.97;;;12.15;100.00
65173;BME280;69059;52.218;5.172;2023-06-04T05:02:07;102049.69;;;11.91;100.00
65173;BME280;69059;52.218;5.172;2023-06-04T05:04:36;102055.28;;;12.04;100.00
65173;BME280;69059;52.218;5.172;2023-06-04T05:07:05;102066.28;;;12.07;100.00
65173;BME280;69059;52.218;5.172;2023-06-04T05:09:33;102087.97;;;12.26;100.00
65173;BME280;69059;52.218;5.172;2023-06-04T05:12:01;102081.22;;;12.23;100.00
65173;BME280;69059;52.218;5.172;2023-06-04T05:14:29;102092.69;;;12.30;100.00
65173;BME280;69059;52.218;5.172;2023-06-04T05:16:57;102085.56;;;12.40;100.00
65173;BME280;69059;52.218;5.172;2023-06-04T05:19:25;102081.44;;;12.38;100.00
65173;BME280;69059;52.218;5.172;2023-06-04T05:21:53;102074.06;;;12.33;100.00
65173;BME280;69059;52.218;5.172;2023-06-04T05:24:23;102078.66;;;12.39;100.00
65173;BME280;69059;52.218;5.172;2023-06-04T05:26:51;102067.56;;;12.53;100.00
65173;BME280;69059;52.218;5.172;2023-06-04T05:29:19;102072.16;;;12.51;100.00
65173;BME280;69059;52.218;5.172;2023-06-04T05:31:47;102061.84;;;12.58;100.00
65173;BME280;69059;52.218;5.172;2023-06-04T05:34:15;102064.63;;;12.65;100.00
65173;BME280;69059;52.218;5.172;2023-06-04T05:36:43;102055.31;;;12.62;100.00
65173;BME280;69059;52.218;5.172;2023-06-04T05:39:11;102056.13;;;12.71;100.00
65173;BME280;69059;52.218;5.172;2023-06-04T05:41:40;102058.56;;;12.80;100.00
65173;BME280;69059;52.218;5.172;2023-06-04T05:44:08;102067.91;;;12.83;100.00
65173;BME280;69059;52.218;5.172;2023-06-04T05:46:36;102058.25;;;12.83;100.00
65173;BME280;69059;52.218;5.172;2023-06-04T05:49:04;102063.69;;;12.98;100.00
65173;BME280;69059;52.218;5.172;2023-06-04T05:51:32;102052.88;;;13.01;100.00
65173;BME280;69059;52.218;5.172;2023-06-04T05:54:00;102056.63;;;12.99;100.00
65173;BME280;69059;52.218;5.172;2023-06-04T05:56:28;102060.72;;;13.09;100.00
65173;BME280;69059;52.218;5.172;2023-06-04T05:58:57;102066.78;;;13.18;100.00
65173;BME280;69059;52.218;5.172;2023-06-04T06:01:25;102061.72;;;13.24;100.00
65173;BME280;69059;52.218;5.172;2023-06-04T06:03:54;102062.72;;;13.23;100.00
65173;BME280;69059;52.218;5.172;2023-06-04T06:06:22;102061.38;;;13.36;100.00
65173;BME280;69059;52.218;5.172;2023-06-04T06:08:50;102069.41;;;13.50;100.00
65173;BME280;69059;52.218;5.172;2023-06-04T06:11:19;102075.09;;;13.62;100.00
65173;BME280;69059;52.218;5.172;2023-06-04T06:13:48;102082.13;;;13.70;100.00
65173;BME280;69059;52.218;5.172;2023-06-04T06:16:17;102087.22;;;13.79;100.00
65173;BME280;69059;52.218;5.172;2023-06-04T06:18:45;102097.50;;;13.89;100.00
65173;BME280;69059;52.218;5.172;2023-06-04T06:21:13;102097.31;;;13.98;100.00
65173;BME280;69059;52.218;5.172;2023-06-04T06:23:41;102101.06;;;14.04;100.00
65173;BME280;69059;52.218;5.172;2023-06-04T06:26:09;102098.34;;;14.20;100.00
65173;BME280;69059;52.218;5.172;2023-06-04T06:28:38;102095.16;;;14.33;100.00
65173;BME280;69059;52.218;5.172;2023-06-04T06:31:06;102109.84;;;14.58;100.00
65173;BME280;69059;52.218;5.172;2023-06-04T06:33:36;102114.66;;;14.78;100.00
65173;BME280;69059;52.218;5.172;2023-06-04T06:36:07;102113.28;;;14.90;100.00
65173;BME280;69059;52.218;5.172;2023-06-04T06:38:35;102119.97;;;15.15;100.00
65173;BME280;69059;52.218;5.172;2023-06-04T06:41:03;102123.56;;;15.37;100.00
65173;BME280;69059;52.218;5.172;2023-06-04T06:43:31;102111.75;;;15.33;100.00
65173;BME280;69059;52.218;5.172;2023-06-04T06:45:59;102145.97;;;15.56;100.00
65173;BME280;69059;52.218;5.172;2023-06-04T06:48:27;102148.00;;;15.68;100.00
65173;BME280;69059;52.218;5.172;2023-06-04T06:50:57;102157.06;;;15.66;100.00
65173;BME280;69059;52.218;5.172;2023-06-04T06:53:25;102158.50;;;15.83;100.00
65173;BME280;69059;52.218;5.172;2023-06-04T06:55:53;102163.78;;;15.98;100.00
65173;BME280;69059;52.218;5.172;2023-06-04T06:58:21;102152.53;;;16.19;100.00
65173;BME280;69059;52.218;5.172;2023-06-04T07:00:49;102157.25;;;16.23;100.00
65173;BME280;69059;52.218;5.172;2023-06-04T07:03:17;102164.94;;;16.54;100.00
65173;BME280;69059;52.218;5.172;2023-06-04T07:05:45;102170.41;;;16.67;100.00
65173;BME280;69059;52.218;5.172;2023-06-04T07:08:15;102175.69;;;16.89;100.00
65173;BME280;69059;52.218;5.172;2023-06-04T07:10:43;102145.50;;;16.91;100.00
65173;BME280;69059;52.218;5.172;2023-06-04T07:13:10;102187.31;;;17.15;100.00
65173;BME280;69059;52.218;5.172;2023-06-04T07:15:38;102187.31;;;16.94;100.00
65173;BME280;69059;52.218;5.172;2023-06-04T07:18:06;102181.22;;;17.15;100.00
65173;BME280;69059;52.218;5.172;2023-06-04T07:20:34;102188.53;;;17.34;100.00
65173;BME280;69059;52.218;5.172;2023-06-04T07:23:02;102190.03;;;17.43;100.00
65173;BME280;69059;52.218;5.172;2023-06-04T07:25:31;102186.63;;;17.71;100.00
65173;BME280;69059;52.218;5.172;2023-06-04T07:27:59;102197.13;;;17.92;100.00
65173;BME280;69059;52.218;5.172;2023-06-04T07:30:30;102173.50;;;17.63;100.00
65173;BME280;69059;52.218;5.172;2023-06-04T07:32:59;102192.28;;;18.02;100.00
65173;BME280;69059;52.218;5.172;2023-06-04T07:35:27;102206.59;;;18.14;100.00
65173;BME280;69059;52.218;5.172;2023-06-04T07:37:54;102204.66;;;18.30;100.00
65173;BME280;69059;52.218;5.172;2023-06-04T07:40:23;102206.16;;;18.52;100.00
65173;BME280;69059;52.218;5.172;2023-06-04T07:42:52;102197.03;;;18.54;100.00
65173;BME280;69059;52.218;5.172;2023-06-04T07:45:20;102194.28;;;18.76;100.00
65173;BME280;69059;52.218;5.172;2023-06-04T07:47:48;102200.81;;;18.80;100.00
65173;BME280;69059;52.218;5.172;2023-06-04T07:50:16;102204.06;;;18.88;100.00
65173;BME280;69059;52.218;5.172;2023-06-04T07:52:44;102194.97;;;18.98;100.00
65173;BME280;69059;52.218;5.172;2023-06-04T07:55:12;102198.22;;;19.13;100.00
65173;BME280;69059;52.218;5.172;2023-06-04T07:57:40;102209.06;;;19.31;100.00
65173;BME280;69059;52.218;5.172;2023-06-04T08:00:11;102208.41;;;19.16;100.00
65173;BME280;69059;52.218;5.172;2023-06-04T08:02:39;102198.88;;;19.35;100.00
65173;BME280;69059;52.218;5.172;2023-06-04T08:05:07;102202.09;;;19.17;100.00
65173;BME280;69059;52.218;5.172;2023-06-04T08:07:35;102205.03;;;19.61;100.00
65173;BME280;69059;52.218;5.172;2023-06-04T08:10:04;102207.81;;;19.93;100.00
65173;BME280;69059;52.218;5.172;2023-06-04T08:12:33;102214.81;;;19.74;100.00
65173;BME280;69059;52.218;5.172;2023-06-04T08:15:00;102211.47;;;20.05;100.00
65173;BME280;69059;52.218;5.172;2023-06-04T08:17:30;102208.13;;;20.29;100.00
65173;BME280;69059;52.218;5.172;2023-06-04T08:19:58;102212.91;;;20.72;100.00
65173;BME280;69059;52.218;5.172;2023-06-04T08:22:26;102208.28;;;20.92;100.00
65173;BME280;69059;52.218;5.172;2023-06-04T08:24:55;102216.25;;;20.92;100.00
65173;BME280;69059;52.218;5.172;2023-06-04T08:27:23;102220.22;;;21.15;100.00
65173;BME280;69059;52.218;5.172;2023-06-04T08:29:51;102219.56;;;21.26;100.00
65173;BME280;69059;52.218;5.172;2023-06-04T08:32:19;102207.16;;;21.13;100.00
65173;BME280;69059;52.218;5.172;2023-06-04T08:34:48;102221.78;;;21.54;100.00
65173;BME280;69059;52.218;5.172;2023-06-04T08:37:16;102218.69;;;21.32;100.00
65173;BME280;69059;52.218;5.172;2023-06-04T08:39:44;102219.97;;;21.23;99.34
65173;BME280;69059;52.218;5.172;2023-06-04T08:42:18;102214.84;;;20.90;100.00
65173;BME280;69059;52.218;5.172;2023-06-04T08:44:50;102218.53;;;21.76;100.00
65173;BME280;69059;52.218;5.172;2023-06-04T08:47:19;102216.44;;;22.22;100.00
65173;BME280;69059;52.218;5.172;2023-06-04T08:49:49;102218.88;;;22.41;100.00
65173;BME280;69059;52.218;5.172;2023-06-04T08:52:17;102216.31;;;22.83;98.75
65173;BME280;69059;52.218;5.172;2023-06-04T08:54:49;102188.19;;;22.87;98.19
65173;BME280;69059;52.218;5.172;2023-06-04T08:57:18;102220.69;;;23.19;97.56
65173;BME280;69059;52.218;5.172;2023-06-04T08:59:47;102211.88;;;23.18;92.28
65173;BME280;69059;52.218;5.172;2023-06-04T09:02:15;102221.81;;;22.51;95.00
65173;BME280;69059;52.218;5.172;2023-06-04T09:04:43;102221.34;;;22.55;92.20
65173;BME280;69059;52.218;5.172;2023-06-04T09:07:14;102228.78;;;22.34;97.04
65173;BME280;69059;52.218;5.172;2023-06-04T09:09:44;102227.25;;;21.84;98.62
65173;BME280;69059;52.218;5.172;2023-06-04T09:12:27;102233.13;;;22.10;100.00
65173;BME280;69059;52.218;5.172;2023-06-04T09:14:57;102225.03;;;22.24;100.00
65173;BME280;69059;52.218;5.172;2023-06-04T09:17:25;102191.31;;;22.17;100.00
65173;BME280;69059;52.218;5.172;2023-06-04T09:19:53;102220.50;;;22.42;97.19
65173;BME280;69059;52.218;5.172;2023-06-04T09:22:31;102194.19;;;22.52;99.35
65173;BME280;69059;52.218;5.172;2023-06-04T09:25:00;102204.78;;;22.41;95.43
65173;BME280;69059;52.218;5.172;2023-06-04T09:27:37;102202.72;;;22.55;98.41
65173;BME280;69059;52.218;5.172;2023-06-04T09:30:06;102197.97;;;22.75;100.00
65173;BME280;69059;52.218;5.172;2023-06-04T09:32:36;102215.16;;;23.20;100.00
65173;BME280;69059;52.218;5.172;2023-06-04T09:35:11;102218.50;;;23.16;100.00
65173;BME280;69059;52.218;5.172;2023-06-04T09:37:41;102229.19;;;22.86;100.00
65173;BME280;69059;52.218;5.172;2023-06-04T09:40:10;102228.03;;;22.64;98.88
65173;BME280;69059;52.218;5.172;2023-06-04T09:42:41;102230.47;;;22.95;94.17
65173;BME280;69059;52.218;5.172;2023-06-04T09:45:10;102229.44;;;22.30;95.72
65173;BME280;69059;52.218;5.172;2023-06-04T09:47:39;102226.44;;;22.74;100.00
65173;BME280;69059;52.218;5.172;2023-06-04T09:50:08;102214.63;;;23.00;100.00
65173;BME280;69059;52.218;5.172;2023-06-04T09:52:36;102216.88;;;23.15;92.28
65173;BME280;69059;52.218;5.172;2023-06-04T09:55:15;102201.97;;;22.84;91.54
65173;BME280;69059;52.218;5.172;2023-06-04T09:57:47;102221.91;;;23.46;100.00
65173;BME280;69059;52.218;5.172;2023-06-04T10:00:17;102231.47;;;23.77;92.89
65173;BME280;69059;52.218;5.172;2023-06-04T10:02:45;102224.38;;;24.06;100.00
65173;BME280;69059;52.218;5.172;2023-06-04T10:05:14;102235.03;;;24.18;89.61
65173;BME280;69059;52.218;5.172;2023-06-04T10:07:44;102228.97;;;23.29;81.23
65173;BME280;69059;52.218;5.172;2023-06-04T10:10:18;102222.97;;;23.57;88.03
65173;BME280;69059;52.218;5.172;2023-06-04T10:12:50;102221.78;;;23.30;92.10
65173;BME280;69059;52.218;5.172;2023-06-04T10:15:19;102223.47;;;23.12;94.32
65173;BME280;69059;52.218;5.172;2023-06-04T10:17:46;102225.31;;;23.88;95.94
65173;BME280;69059;52.218;5.172;2023-06-04T10:20:17;102225.97;;;23.49;92.83
65173;BME280;69059;52.218;5.172;2023-06-04T10:22:47;102214.16;;;24.15;95.34
65173;BME280;69059;52.218;5.172;2023-06-04T10:25:18;102225.19;;;24.58;100.00
65173;BME280;69059;52.218;5.172;2023-06-04T10:27:47;102216.97;;;24.48;100.00
65173;BME280;69059;52.218;5.172;2023-06-04T10:30:18;102227.09;;;24.75;100.00
65173;BME280;69059;52.218;5.172;2023-06-04T10:32:46;102224.59;;;24.85;94.91
65173;BME280;69059;52.218;5.172;2023-06-04T10:35:14;102227.25;;;24.16;91.81
65173;BME280;69059;52.218;5.172;2023-06-04T10:37:42;102224.28;;;24.53;99.65
65173;BME280;69059;52.218;5.172;2023-06-04T10:40:11;102220.56;;;24.02;91.85
65173;BME280;69059;52.218;5.172;2023-06-04T10:42:41;102228.44;;;24.60;89.02
65173;BME280;69059;52.218;5.172;2023-06-04T10:45:10;102219.84;;;24.30;89.23
65173;BME280;69059;52.218;5.172;2023-06-04T10:47:38;102199.59;;;24.74;97.73
65173;BME280;69059;52.218;5.172;2023-06-04T10:50:09;102223.00;;;25.29;83.11
65173;BME280;69059;52.218;5.172;2023-06-04T10:52:37;102215.06;;;24.89;87.21
65173;BME280;69059;52.218;5.172;2023-06-04T10:55:07;102222.34;;;25.22;84.26
65173;BME280;69059;52.218;5.172;2023-06-04T10:57:35;102222.22;;;25.45;91.15
65173;BME280;69059;52.218;5.172;2023-06-04T11:00:06;102232.22;;;24.36;100.00
65173;BME280;69059;52.218;5.172;2023-06-04T11:02:42;102218.13;;;24.01;96.87
65173;BME280;69059;52.218;5.172;2023-06-04T11:05:16;102225.09;;;23.78;100.00
65173;BME280;69059;52.218;5.172;2023-06-04T11:07:45;102222.00;;;24.73;100.00
65173;BME280;69059;52.218;5.172;2023-06-04T11:10:15;102214.16;;;24.95;100.00
65173;BME280;69059;52.218;5.172;2023-06-04T11:12:44;102202.59;;;25.23;100.00
65173;BME280;69059;52.218;5.172;2023-06-04T11:15:14;102206.88;;;25.57;100.00
65173;BME280;69059;52.218;5.172;2023-06-04T11:17:49;102201.66;;;25.84;100.00
65173;BME280;69059;52.218;5.172;2023-06-04T11:20:18;102197.44;;;26.10;100.00
65173;BME280;69059;52.218;5.172;2023-06-04T11:22:51;102204.84;;;26.68;100.00
65173;BME280;69059;52.218;5.172;2023-06-04T11:25:19;102185.03;;;26.69;100.00
65173;BME280;69059;52.218;5.172;2023-06-04T11:27:49;102177.28;;;26.73;100.00
65173;BME280;69059;52.218;5.172;2023-06-04T11:30:19;102198.13;;;26.66;100.00
65173;BME280;69059;52.218;5.172;2023-06-04T11:32:48;102199.25;;;26.70;100.00
65173;BME280;69059;52.218;5.172;2023-06-04T11:35:16;102203.91;;;27.11;100.00
65173;BME280;69059;52.218;5.172;2023-06-04T11:37:53;102185.53;;;27.25;100.00
65173;BME280;69059;52.218;5.172;2023-06-04T11:40:22;102194.97;;;27.33;100.00
65173;BME280;69059;52.218;5.172;2023-06-04T11:42:50;102199.78;;;27.68;100.00
65173;BME280;69059;52.218;5.172;2023-06-04T11:45:20;102206.88;;;27.84;98.12
65173;BME280;69059;52.218;5.172;2023-06-04T11:47:51;102150.38;;;27.59;98.82
65173;BME280;69059;52.218;5.172;2023-06-04T11:50:20;102192.59;;;27.78;96.84
65173;BME280;69059;52.218;5.172;2023-06-04T11:52:48;102173.19;;;27.61;96.89
65173;BME280;69059;52.218;5.172;2023-06-04T11:55:16;102194.50;;;27.83;100.00
65173;BME280;69059;52.218;5.172;2023-06-04T11:57:48;102187.88;;;27.54;94.53
65173;BME280;69059;52.218;5.172;2023-06-04T12:00:16;102176.50;;;27.73;100.00
65173;BME280;69059;52.218;5.172;2023-06-04T12:02:51;102158.09;;;28.02;99.41
65173;BME280;69059;52.218;5.172;2023-06-04T12:05:23;102182.75;;;27.94;98.85
65173;BME280;69059;52.218;5.172;2023-06-04T12:07:51;102178.41;;;27.88;90.53
65173;BME280;69059;52.218;5.172;2023-06-04T12:10:19;102179.53;;;27.92;94.39
65173;BME280;69059;52.218;5.172;2023-06-04T12:12:54;102180.53;;;28.43;93.96
65173;BME280;69059;52.218;5.172;2023-06-04T12:15:22;102186.66;;;28.29;82.64
65173;BME280;69059;52.218;5.172;2023-06-04T12:17:53;102180.88;;;28.00;96.40
65173;BME280;69059;52.218;5.172;2023-06-04T12:20:32;102181.88;;;28.36;88.03
65173;BME280;69059;52.218;5.172;2023-06-04T12:23:01;102175.78;;;27.93;91.82
65173;BME280;69059;52.218;5.172;2023-06-04T12:25:29;102156.22;;;28.13;87.49
65173;BME280;69059;52.218;5.172;2023-06-04T12:27:57;102158.00;;;28.65;91.05
65173;BME280;69059;52.218;5.172;2023-06-04T12:30:34;102181.44;;;29.00;85.64
65173;BME280;69059;52.218;5.172;2023-06-04T12:33:03;102186.31;;;28.10;89.40
65173;BME280;69059;52.218;5.172;2023-06-04T12:35:32;102164.47;;;28.79;86.99
65173;BME280;69059;52.218;5.172;2023-06-04T12:38:02;102176.84;;;29.15;76.03
65173;BME280;69059;52.218;5.172;2023-06-04T12:40:30;102187.84;;;29.29;82.59
65173;BME280;69059;52.218;5.172;2023-06-04T12:42:58;102181.66;;;29.54;82.86
65173;BME280;69059;52.218;5.172;2023-06-04T12:45:26;102189.09;;;29.82;82.59
65173;BME280;69059;52.218;5.172;2023-06-04T12:47:54;102188.41;;;29.41;66.55
65173;BME280;69059;52.218;5.172;2023-06-04T12:50:24;102185.59;;;29.82;78.84
65173;BME280;69059;52.218;5.172;2023-06-04T12:52:52;102171.06;;;29.88;81.48